createdAt,value
2018-09-11T00:01:39.027Z,99.90
2018-09-11T00:04:07.575Z,99.90
2018-09-11T00:06:36.099Z,99.90
2018-09-11T00:09:07.865Z,99.90
2018-09-11T00:11:36.335Z,99.90
2018-09-11T00:14:04.814Z,99.90
2018-09-11T00:16:33.366Z,99.90
2018-09-11T00:19:01.871Z,99.90
2018-09-11T00:21:30.463Z,99.90
2018-09-11T00:23:58.930Z,99.90
2018-09-11T00:26:27.414Z,99.90
2018-09-11T00:28:55.882Z,99.90
2018-09-11T00:31:24.366Z,99.90
2018-09-11T00:33:52.872Z,99.90
2018-09-11T00:36:21.373Z,99.90
2018-09-11T00:38:49.832Z,99.90
2018-09-11T00:41:18.298Z,99.90
2018-09-11T00:43:46.767Z,99.90
2018-09-11T00:46:15.247Z,99.90
2018-09-11T00:48:43.723Z,99.90
2018-09-11T00:51:12.203Z,99.90
2018-09-11T00:53:40.670Z,99.90
2018-09-11T00:56:09.143Z,99.90
2018-09-11T00:58:37.635Z,99.90
2018-09-11T01:01:06.139Z,99.90
2018-09-11T01:03:34.648Z,99.90
2018-09-11T01:06:03.151Z,99.90
2018-09-11T01:08:31.675Z,99.90
2018-09-11T01:11:00.197Z,99.90
2018-09-11T01:13:28.666Z,99.90
2018-09-11T01:15:57.142Z,99.90
2018-09-11T01:18:25.622Z,99.90
2018-09-11T01:20:54.099Z,99.90
2018-09-11T01:23:22.568Z,99.90
2018-09-11T01:25:51.047Z,99.90
2018-09-11T01:28:19.523Z,99.90
2018-09-11T01:30:48.018Z,99.90
2018-09-11T01:33:16.474Z,99.90
2018-09-11T01:35:44.978Z,99.90
2018-09-11T01:38:13.440Z,99.90
2018-09-11T01:40:41.911Z,99.90
2018-09-11T01:43:10.383Z,99.90
2018-09-11T01:45:38.855Z,99.90
2018-09-11T01:48:07.425Z,99.90
2018-09-11T01:50:35.891Z,99.90
2018-09-11T01:53:04.367Z,99.90
2018-09-11T01:55:32.868Z,99.90
2018-09-11T01:58:01.371Z,99.90
2018-09-11T02:00:29.847Z,99.90
2018-09-11T02:02:58.323Z,99.90
2018-09-11T02:05:26.819Z,99.90
2018-09-11T02:07:55.323Z,99.90
2018-09-11T02:10:23.799Z,99.90
2018-09-11T02:12:52.284Z,99.90
2018-09-11T02:15:20.814Z,99.90
2018-09-11T02:17:49.339Z,99.90
2018-09-11T02:20:17.886Z,99.90
2018-09-11T02:22:46.403Z,99.90
2018-09-11T02:25:14.890Z,99.90
2018-09-11T02:27:43.403Z,99.90
2018-09-11T02:30:11.884Z,99.90
2018-09-11T02:32:40.348Z,99.90
2018-09-11T02:35:08.831Z,99.90
2018-09-11T02:37:37.316Z,99.90
2018-09-11T02:40:05.866Z,99.90
2018-09-11T02:42:34.335Z,99.90
2018-09-11T02:45:02.878Z,99.90
2018-09-11T02:47:31.399Z,99.90
2018-09-11T02:49:59.870Z,99.90
2018-09-11T02:52:28.339Z,99.90
2018-09-11T02:54:56.839Z,99.90
2018-09-11T02:57:25.348Z,99.90
2018-09-11T02:59:53.814Z,99.90
2018-09-11T03:02:22.302Z,99.90
2018-09-11T03:04:50.803Z,99.90
2018-09-11T03:07:19.287Z,99.90
2018-09-11T03:09:47.767Z,99.90
2018-09-11T03:12:16.328Z,99.90
2018-09-11T03:14:44.795Z,99.90
2018-09-11T03:17:13.283Z,99.90
2018-09-11T03:19:41.755Z,99.90
2018-09-11T03:22:10.235Z,99.90
2018-09-11T03:24:38.701Z,99.90
2018-09-11T03:27:07.194Z,99.90
2018-09-11T03:29:44.567Z,99.90
2018-09-11T03:32:13.053Z,99.90
2018-09-11T03:34:41.526Z,99.90
2018-09-11T03:37:10.031Z,99.90
2018-09-11T03:39:38.527Z,99.90
2018-09-11T03:42:07.019Z,99.90
2018-09-11T03:44:35.479Z,99.90
2018-09-11T03:47:03.976Z,99.90
2018-09-11T03:49:32.486Z,99.90
2018-09-11T03:52:00.971Z,99.90
2018-09-11T03:54:29.442Z,99.90
2018-09-11T03:56:57.921Z,99.90
2018-09-11T03:59:26.396Z,99.90
2018-09-11T04:01:54.890Z,99.90
2018-09-11T04:04:23.383Z,99.90
2018-09-11T04:06:51.859Z,99.90
2018-09-11T04:09:20.363Z,99.90
2018-09-11T04:11:48.871Z,99.90
2018-09-11T04:14:17.351Z,99.90
2018-09-11T04:16:45.843Z,99.90
2018-09-11T04:19:14.318Z,99.90
2018-09-11T04:21:42.799Z,99.90
2018-09-11T04:24:11.283Z,99.90
2018-09-11T04:26:39.789Z,99.90
2018-09-11T04:29:08.379Z,99.90
2018-09-11T04:31:36.919Z,99.90
2018-09-11T04:34:05.455Z,99.90
2018-09-11T04:36:34.038Z,99.90
2018-09-11T04:39:02.492Z,99.90
2018-09-11T04:41:31.047Z,99.90
2018-09-11T04:43:59.542Z,99.90
2018-09-11T04:46:28.010Z,99.90
2018-09-11T04:48:56.511Z,99.90
2018-09-11T04:51:25.066Z,99.90
2018-09-11T04:53:53.581Z,99.90
2018-09-11T04:56:22.066Z,99.90
2018-09-11T04:58:50.551Z,99.90
2018-09-11T05:01:19.034Z,99.90
2018-09-11T05:03:47.533Z,99.90
2018-09-11T05:06:16.049Z,99.90
2018-09-11T05:08:44.550Z,99.90
2018-09-11T05:11:13.023Z,99.90
2018-09-11T05:13:41.494Z,99.90
2018-09-11T05:16:09.979Z,99.90
2018-09-11T05:18:38.487Z,99.90
2018-09-11T05:21:07.012Z,99.90
2018-09-11T05:23:35.462Z,99.90
2018-09-11T05:26:03.994Z,99.90
2018-09-11T05:28:32.506Z,99.90
2018-09-11T05:31:01.129Z,99.90
2018-09-11T05:33:29.601Z,99.90
2018-09-11T05:35:58.930Z,99.90
2018-09-11T05:38:27.388Z,99.90
2018-09-11T05:40:55.918Z,99.90
2018-09-11T05:43:24.412Z,99.90
2018-09-11T05:45:53.272Z,99.90
2018-09-11T05:48:21.787Z,99.90
2018-09-11T05:50:50.387Z,99.90
2018-09-11T05:53:18.883Z,99.90
2018-09-11T05:55:47.390Z,99.90
2018-09-11T05:58:15.890Z,99.90
2018-09-11T06:00:44.351Z,99.90
2018-09-11T06:03:12.830Z,99.90
2018-09-11T06:05:41.317Z,99.90
2018-09-11T06:08:09.798Z,99.90
2018-09-11T06:10:38.296Z,99.90
2018-09-11T06:13:06.864Z,99.90
2018-09-11T06:15:35.344Z,99.90
2018-09-11T06:18:03.834Z,99.90
2018-09-11T06:20:32.440Z,99.90
2018-09-11T06:23:00.900Z,99.90
2018-09-11T06:25:29.411Z,99.90
2018-09-11T06:27:57.863Z,99.90
2018-09-11T06:30:26.380Z,99.90
2018-09-11T06:32:54.863Z,99.90
2018-09-11T06:35:23.344Z,99.90
2018-09-11T06:37:51.807Z,99.90
2018-09-11T06:40:20.334Z,99.90
2018-09-11T06:42:48.811Z,99.90
2018-09-11T06:45:17.287Z,99.90
2018-09-11T06:47:45.762Z,99.90
2018-09-11T06:50:14.230Z,99.90
2018-09-11T06:52:42.759Z,99.90
2018-09-11T06:55:11.362Z,99.90
2018-09-11T06:57:39.875Z,99.90
2018-09-11T07:00:08.400Z,99.90
2018-09-11T07:02:36.962Z,99.90
2018-09-11T07:05:05.523Z,99.90
2018-09-11T07:07:34.020Z,99.90
2018-09-11T07:10:02.790Z,99.90
2018-09-11T07:12:31.246Z,99.90
2018-09-11T07:14:59.747Z,99.90
2018-09-11T07:17:28.235Z,99.90
2018-09-11T07:19:56.755Z,99.90
2018-09-11T07:22:25.295Z,99.90
2018-09-11T07:24:53.816Z,99.90
2018-09-11T07:27:22.291Z,99.90
2018-09-11T07:29:50.755Z,99.90
2018-09-11T07:32:19.317Z,99.90
2018-09-11T07:34:47.770Z,99.90
2018-09-11T07:37:16.253Z,99.90
2018-09-11T07:39:44.741Z,99.90
2018-09-11T07:42:13.223Z,99.90
2018-09-11T07:44:41.711Z,99.90
2018-09-11T07:47:10.202Z,99.90
2018-09-11T07:49:38.763Z,99.90
2018-09-11T07:52:07.451Z,99.90
2018-09-11T07:54:35.938Z,99.90
2018-09-11T07:57:04.455Z,99.90
2018-09-11T07:59:32.971Z,99.90
2018-09-11T08:02:01.443Z,99.90
2018-09-11T08:04:29.940Z,99.90
2018-09-11T08:06:58.559Z,99.90
2018-09-11T08:09:27.104Z,99.90
2018-09-11T08:11:55.588Z,99.90
2018-09-11T08:14:24.034Z,99.90
2018-09-11T08:16:52.543Z,99.90
2018-09-11T08:19:21.059Z,99.90
2018-09-11T08:21:49.631Z,99.90
2018-09-11T08:24:18.106Z,99.90
2018-09-11T08:26:46.571Z,99.90
2018-09-11T08:29:15.122Z,99.90
2018-09-11T08:31:43.574Z,99.90
2018-09-11T08:34:12.036Z,99.90
2018-09-11T08:36:40.522Z,99.90
2018-09-11T08:39:10.291Z,99.90
2018-09-11T08:41:38.803Z,99.90
2018-09-11T08:44:07.288Z,99.90
2018-09-11T08:46:35.789Z,99.90
2018-09-11T08:49:04.458Z,99.90
2018-09-11T08:51:32.995Z,99.90
2018-09-11T08:54:01.502Z,99.90
2018-09-11T08:56:29.992Z,98.50
2018-09-11T08:58:58.495Z,96.90
2018-09-11T09:01:26.992Z,97.70
2018-09-11T09:03:55.463Z,93.10
2018-09-11T09:06:23.984Z,90.40
2018-09-11T09:08:52.469Z,91.50
2018-09-11T09:11:21.015Z,93.10
2018-09-11T09:13:49.470Z,94.30
2018-09-11T09:16:18.136Z,94.10
2018-09-11T09:18:47.112Z,92.90
2018-09-11T09:21:15.591Z,92.60
2018-09-11T09:23:44.086Z,90.70
2018-09-11T09:26:12.543Z,88.50
2018-09-11T09:28:41.079Z,84.60
2018-09-11T09:31:09.551Z,84.10
2018-09-11T09:33:38.031Z,89.50
2018-09-11T09:36:06.715Z,90.20
2018-09-11T09:38:35.193Z,84.30
2018-09-11T09:41:03.691Z,82.50
2018-09-11T09:43:32.138Z,81.80
2018-09-11T09:46:00.631Z,79.70
2018-09-11T09:48:29.462Z,78.50
2018-09-11T09:50:58.046Z,75.70
2018-09-11T09:53:26.479Z,78.40
2018-09-11T09:55:54.970Z,81.80
2018-09-11T09:58:23.443Z,76.70
2018-09-11T10:00:57.601Z,74.50
2018-09-11T10:03:26.107Z,74.10
2018-09-11T10:05:54.580Z,75.80
2018-09-11T10:08:23.050Z,75.80
2018-09-11T10:10:51.512Z,76.30
2018-09-11T10:13:20.023Z,75.10
2018-09-11T10:15:48.552Z,75.40
2018-09-11T10:18:17.051Z,71.50
2018-09-11T10:20:45.650Z,67.80
2018-09-11T10:23:14.119Z,69.80
2018-09-11T10:25:42.591Z,68.60
2018-09-11T10:28:11.068Z,66.80
2018-09-11T10:30:39.551Z,64.60
2018-09-11T10:33:08.067Z,63.30
2018-09-11T10:35:36.537Z,64.40
2018-09-11T10:38:05.060Z,64.10
2018-09-11T10:40:33.550Z,61.90
2018-09-11T10:43:02.033Z,59.90
2018-09-11T10:45:30.562Z,61.40
2018-09-11T10:47:59.032Z,64.60
2018-09-11T10:50:27.527Z,60.90
2018-09-11T10:52:56.088Z,60.70
2018-09-11T10:55:24.574Z,57.80
2018-09-11T10:57:53.062Z,57.10
2018-09-11T11:00:21.594Z,58.90
2018-09-11T11:02:50.113Z,60.00
2018-09-11T11:05:18.599Z,59.80
2018-09-11T11:07:47.071Z,59.10
2018-09-11T11:10:15.612Z,62.10
2018-09-11T11:12:44.091Z,60.50
2018-09-11T11:15:12.547Z,59.70
2018-09-11T11:17:41.078Z,56.40
2018-09-11T11:20:09.728Z,56.20
2018-09-11T11:22:38.196Z,58.00
2018-09-11T11:25:06.702Z,58.10
2018-09-11T11:27:35.179Z,58.30
2018-09-11T11:30:03.836Z,58.70
2018-09-11T11:32:32.426Z,58.10
2018-09-11T11:35:00.899Z,57.40
2018-09-11T11:37:29.531Z,57.90
2018-09-11T11:39:57.891Z,56.50
2018-09-11T11:42:26.422Z,56.60
2018-09-11T11:44:54.849Z,58.90
2018-09-11T11:47:23.439Z,57.70
2018-09-11T11:49:52.902Z,54.80
2018-09-11T11:52:21.379Z,57.80
2018-09-11T11:54:50.051Z,62.30
2018-09-11T11:57:18.559Z,63.00
2018-09-11T11:59:47.039Z,64.00
2018-09-11T12:02:15.539Z,62.80
2018-09-11T12:04:44.000Z,62.70
2018-09-11T12:07:12.594Z,64.30
2018-09-11T12:09:41.099Z,66.00
2018-09-11T12:12:09.591Z,67.40
2018-09-11T12:14:38.076Z,63.80
2018-09-11T12:17:06.907Z,63.60
2018-09-11T12:19:35.460Z,63.10
2018-09-11T12:22:03.958Z,63.70
2018-09-11T12:24:32.503Z,63.30
2018-09-11T12:27:00.997Z,63.80
2018-09-11T12:29:29.499Z,63.70
2018-09-11T12:31:57.978Z,61.30
2018-09-11T12:34:26.495Z,61.60
2018-09-11T12:36:54.984Z,62.30
2018-09-11T12:39:23.443Z,61.40
2018-09-11T12:41:51.929Z,60.60
2018-09-11T12:44:20.439Z,60.40
2018-09-11T12:46:49.059Z,60.60
2018-09-11T12:49:17.409Z,63.20
2018-09-11T12:51:45.893Z,63.30
2018-09-11T12:54:14.387Z,61.70
2018-09-11T12:56:42.865Z,61.00
2018-09-11T12:59:11.663Z,61.10
2018-09-11T13:01:40.135Z,60.70
2018-09-11T13:04:08.764Z,63.20
2018-09-11T13:06:37.236Z,62.70
2018-09-11T13:09:06.841Z,65.60
2018-09-11T13:11:35.292Z,64.30
2018-09-11T13:14:03.879Z,64.90
2018-09-11T13:16:32.399Z,67.30
2018-09-11T13:19:00.885Z,66.20
2018-09-11T13:21:29.406Z,65.90
2018-09-11T13:23:57.880Z,66.90
2018-09-11T13:26:26.467Z,67.30
2018-09-11T13:28:54.948Z,65.80
2018-09-11T13:31:23.409Z,67.70
2018-09-11T13:33:52.111Z,64.80
2018-09-11T13:36:20.575Z,65.00
2018-09-11T13:38:49.071Z,65.50
2018-09-11T13:41:17.655Z,63.30
2018-09-11T13:43:46.126Z,62.60
2018-09-11T13:46:14.654Z,64.10
2018-09-11T13:48:43.186Z,64.20
2018-09-11T13:51:11.666Z,64.10
2018-09-11T13:53:40.174Z,64.40
2018-09-11T13:56:08.698Z,64.00
2018-09-11T13:58:37.167Z,64.30
2018-09-11T14:01:05.955Z,64.00
2018-09-11T14:03:34.455Z,65.10
2018-09-11T14:06:02.952Z,64.20
2018-09-11T14:08:31.514Z,62.40
2018-09-11T14:10:59.939Z,63.10
2018-09-11T14:13:28.425Z,61.70
2018-09-11T14:15:56.998Z,62.00
2018-09-11T14:18:25.488Z,63.20
2018-09-11T14:20:53.985Z,64.20
2018-09-11T14:23:22.481Z,65.10
2018-09-11T14:25:50.959Z,63.20
2018-09-11T14:28:19.452Z,64.30
2018-09-11T14:30:48.003Z,62.00
2018-09-11T14:33:16.475Z,62.90
2018-09-11T14:35:44.964Z,66.20
2018-09-11T14:38:13.534Z,64.30
2018-09-11T14:40:42.100Z,61.70
2018-09-11T14:43:10.696Z,62.40
2018-09-11T14:45:39.232Z,62.70
2018-09-11T14:48:07.854Z,62.90
2018-09-11T14:50:36.369Z,63.50
2018-09-11T14:53:04.916Z,64.70
2018-09-11T14:55:33.542Z,62.40
2018-09-11T14:58:02.075Z,64.30
2018-09-11T15:00:30.584Z,62.50
2018-09-11T15:02:59.068Z,61.50
2018-09-11T15:05:27.526Z,62.70
2018-09-11T15:07:56.129Z,61.40
2018-09-11T15:10:24.559Z,60.50
2018-09-11T15:12:53.031Z,60.90
2018-09-11T15:15:21.562Z,61.30
2018-09-11T15:17:50.036Z,61.70
2018-09-11T15:20:18.530Z,63.40
2018-09-11T15:22:47.096Z,62.70
2018-09-11T15:25:15.578Z,64.00
2018-09-11T15:27:44.079Z,63.10
2018-09-11T15:30:12.586Z,62.80
2018-09-11T15:32:41.082Z,63.20
2018-09-11T15:35:09.651Z,62.90
2018-09-11T15:37:38.276Z,63.60
2018-09-11T15:40:07.003Z,65.30
2018-09-11T15:42:35.483Z,64.40
2018-09-11T15:45:04.150Z,62.60
2018-09-11T15:47:32.701Z,62.10
2018-09-11T15:50:01.194Z,63.60
2018-09-11T15:52:29.684Z,63.20
2018-09-11T15:54:58.176Z,64.80
2018-09-11T15:57:26.685Z,64.50
2018-09-11T15:59:55.144Z,63.10
2018-09-11T16:02:23.656Z,63.10
2018-09-11T16:04:52.144Z,73.70
2018-09-11T16:07:20.639Z,82.30
2018-09-11T16:09:49.127Z,81.70
2018-09-11T16:12:17.581Z,81.50
2018-09-11T16:14:46.080Z,82.30
2018-09-11T16:17:14.576Z,84.60
2018-09-11T16:19:43.073Z,86.30
2018-09-11T16:22:11.558Z,87.40
2018-09-11T16:24:40.067Z,91.00
2018-09-11T16:27:08.556Z,92.50
2018-09-11T16:29:37.055Z,93.00
2018-09-11T16:32:05.623Z,94.10
2018-09-11T16:34:34.096Z,97.10
2018-09-11T16:37:02.584Z,98.60
2018-09-11T16:39:31.115Z,99.90
2018-09-11T16:41:59.618Z,99.90
2018-09-11T16:44:28.132Z,99.90
2018-09-11T16:46:56.639Z,99.90
2018-09-11T16:49:25.162Z,99.90
2018-09-11T16:51:53.646Z,99.90
2018-09-11T16:54:22.174Z,99.90
2018-09-11T16:56:50.736Z,99.90
2018-09-11T16:59:19.274Z,99.90
2018-09-11T17:01:47.899Z,99.90
2018-09-11T17:04:17.546Z,99.90
2018-09-11T17:06:46.415Z,99.90
2018-09-11T17:09:14.918Z,99.90
2018-09-11T17:11:45.033Z,99.90
2018-09-11T17:14:13.517Z,99.90
2018-09-11T17:16:42.011Z,99.90
2018-09-11T17:19:10.491Z,99.90
2018-09-11T17:21:39.261Z,99.90
2018-09-11T17:24:07.868Z,99.90
2018-09-11T17:26:36.416Z,99.90
2018-09-11T17:29:04.954Z,99.90
2018-09-11T17:34:26.843Z,99.90
2018-09-11T17:36:55.380Z,99.90
2018-09-11T17:39:24.275Z,99.90
2018-09-11T17:41:53.246Z,99.90
2018-09-11T17:44:21.751Z,99.90
2018-09-11T17:46:50.355Z,99.90
2018-09-11T17:49:19.366Z,99.90
2018-09-11T17:51:48.219Z,99.90
2018-09-11T17:54:17.162Z,99.90
2018-09-11T17:56:46.006Z,99.90
2018-09-11T17:59:15.562Z,99.90
2018-09-11T18:01:45.623Z,99.90
2018-09-11T18:04:14.500Z,99.90
2018-09-11T18:06:43.803Z,99.90
2018-09-11T18:09:12.413Z,99.90
2018-09-11T18:11:41.189Z,99.90
2018-09-11T18:14:13.418Z,99.90
2018-09-11T18:16:43.051Z,99.90
2018-09-11T18:19:11.997Z,99.90
2018-09-11T18:21:40.649Z,99.90
2018-09-11T18:24:09.216Z,99.90
2018-09-11T18:26:38.603Z,99.90
2018-09-11T18:29:08.222Z,99.90
2018-09-11T18:31:37.244Z,99.90
2018-09-11T18:34:06.319Z,99.90
2018-09-11T18:36:35.771Z,99.90
2018-09-11T18:39:06.171Z,99.90
2018-09-11T18:41:35.027Z,99.90
2018-09-11T18:44:04.399Z,99.90
2018-09-11T18:46:33.503Z,99.90
2018-09-11T18:49:02.248Z,99.90
2018-09-11T18:51:31.011Z,99.90
2018-09-11T18:53:59.514Z,99.90
2018-09-11T18:56:28.139Z,99.90
2018-09-11T18:58:56.963Z,99.90
2018-09-11T19:01:25.775Z,99.90
2018-09-11T19:03:54.464Z,99.90
2018-09-11T19:06:23.547Z,99.90
2018-09-11T19:08:53.151Z,99.90
2018-09-11T19:11:22.299Z,99.90
2018-09-11T19:13:50.900Z,99.90
2018-09-11T19:16:19.465Z,99.90
2018-09-11T19:18:48.010Z,99.90
2018-09-11T19:21:16.504Z,99.90
2018-09-11T19:23:45.762Z,99.90
2018-09-11T19:26:14.340Z,99.90
2018-09-11T19:28:42.876Z,99.90
2018-09-11T19:31:11.415Z,99.90
2018-09-11T19:33:39.915Z,99.90
2018-09-11T19:36:08.429Z,99.90
2018-09-11T19:38:36.923Z,99.90
2018-09-11T19:41:05.505Z,99.90
2018-09-11T19:43:33.961Z,99.90
2018-09-11T19:46:02.498Z,99.90
2018-09-11T19:48:31.030Z,99.90
2018-09-11T19:50:59.531Z,99.90
2018-09-11T19:53:28.173Z,99.90
2018-09-11T19:55:56.715Z,99.90
2018-09-11T19:58:25.223Z,99.90
2018-09-11T20:00:53.729Z,99.90
2018-09-11T20:03:22.336Z,99.90
2018-09-11T20:05:50.947Z,99.90
2018-09-11T20:08:19.427Z,99.90
2018-09-11T20:10:48.050Z,99.90
2018-09-11T20:13:16.600Z,99.90
2018-09-11T20:15:45.120Z,99.90
2018-09-11T20:18:13.626Z,99.90
2018-09-11T20:20:42.155Z,99.90
2018-09-11T20:23:10.736Z,99.90
2018-09-11T20:25:39.243Z,99.90
2018-09-11T20:28:07.795Z,99.90
2018-09-11T20:30:36.308Z,99.90
2018-09-11T20:33:04.825Z,99.90
2018-09-11T20:35:33.564Z,99.90
2018-09-11T20:38:02.103Z,99.90
2018-09-11T20:40:30.684Z,99.90
2018-09-11T20:42:59.164Z,99.90
2018-09-11T20:45:27.715Z,99.90
2018-09-11T20:47:56.230Z,99.90
2018-09-11T20:50:24.723Z,99.90
2018-09-11T20:52:53.211Z,99.90
2018-09-11T20:55:21.711Z,99.90
2018-09-11T20:57:50.500Z,99.90
2018-09-11T21:00:19.031Z,99.90
2018-09-11T21:02:47.555Z,99.90
2018-09-11T21:05:16.058Z,99.90
2018-09-11T21:07:44.539Z,99.90
2018-09-11T21:10:13.044Z,99.90
2018-09-11T21:12:41.585Z,99.90
2018-09-11T21:15:10.075Z,99.90
2018-09-11T21:17:38.579Z,99.90
2018-09-11T21:20:07.210Z,99.90
2018-09-11T21:22:35.704Z,99.90
2018-09-11T21:25:04.206Z,99.90
2018-09-11T21:27:32.702Z,99.90
2018-09-11T21:30:01.254Z,99.90
2018-09-11T21:32:29.785Z,99.90
2018-09-11T21:34:58.368Z,99.90
2018-09-11T21:37:26.841Z,99.90
2018-09-11T21:39:55.354Z,99.90
2018-09-11T21:42:23.866Z,99.90
2018-09-11T21:44:52.355Z,99.90
2018-09-11T21:47:20.824Z,99.90
2018-09-11T21:49:49.343Z,99.90
2018-09-11T21:52:17.855Z,99.90
2018-09-11T21:54:46.330Z,99.90
2018-09-11T21:57:14.785Z,99.90
2018-09-11T21:59:43.346Z,99.90
2018-09-11T22:02:11.856Z,99.90
2018-09-11T22:04:40.458Z,99.90
2018-09-11T22:07:08.984Z,99.90
2018-09-11T22:09:37.851Z,99.90
2018-09-11T22:12:06.368Z,99.90
2018-09-11T22:14:34.866Z,99.90
2018-09-11T22:17:03.374Z,99.90
2018-09-11T22:19:31.928Z,99.90
2018-09-11T22:22:00.389Z,99.90
2018-09-11T22:24:28.906Z,99.90
2018-09-11T22:26:57.403Z,99.90
2018-09-11T22:29:25.878Z,99.90
2018-09-11T22:31:54.346Z,99.90
2018-09-11T22:34:22.863Z,99.90
2018-09-11T22:36:51.650Z,99.90
2018-09-11T22:39:20.164Z,99.90
2018-09-11T22:41:48.652Z,99.90
2018-09-11T22:44:17.136Z,99.90
2018-09-11T22:46:45.651Z,99.90
2018-09-11T22:49:14.102Z,99.90
2018-09-11T22:51:42.641Z,99.90
2018-09-11T22:54:11.148Z,99.90
2018-09-11T22:56:39.671Z,99.90
2018-09-11T22:59:08.180Z,99.90
2018-09-11T23:01:36.667Z,99.90
2018-09-11T23:04:05.181Z,99.90
2018-09-11T23:06:33.747Z,99.90
2018-09-11T23:09:02.262Z,99.90
2018-09-11T23:11:30.831Z,99.90
2018-09-11T23:13:59.316Z,99.90
2018-09-11T23:16:27.799Z,99.90
2018-09-11T23:18:56.253Z,99.90
2018-09-11T23:21:24.737Z,99.90
2018-09-11T23:23:53.255Z,99.90
2018-09-11T23:26:21.799Z,99.90
2018-09-11T23:28:50.280Z,99.90
2018-09-11T23:31:18.820Z,99.90
2018-09-11T23:33:47.338Z,99.90
2018-09-11T23:36:15.839Z,99.90
2018-09-11T23:38:44.358Z,99.90
2018-09-11T23:41:12.903Z,99.90
2018-09-11T23:43:41.410Z,99.90
2018-09-11T23:46:09.906Z,99.90
2018-09-11T23:48:38.385Z,99.90
2018-09-11T23:51:06.864Z,99.90
2018-09-11T23:53:35.368Z,99.90
2018-09-11T23:56:03.875Z,99.90
2018-09-11T23:58:32.433Z,99.90
